Roque Bluffs, Maine
Current Conditions -  °F | °C
As of 8:55 AM on Monday 24 Nov 2014 (Local Time) from KBHB Reporting Station
Overcast Overcast  
Wind Chill: 52°   Ceiling: 3500
Heat Index: 52°   Visibility: 8mi
Dew Point: 52°   Wind: 9mph
Humidity: 100%   Direction: 140°SE
Pressure: 29.97"   Gusts: NA
Location:  44.8808°N, 67.668°W
Report Text: KBHB 241355Z AUTO 14008KT 8SM SCT021 SCT025 OVC035 11/11 A2997 RMK AO1 P0002
Loading
Personal Weather Stations






























Interactive Weather Map New forecast layout! Learn more

10-Day Weather Forecast

Advertisements
Track Severe Weather on mobile